createdAt,value
2018-01-06T00:03:54.314Z,4.80
2018-01-06T00:06:22.014Z,5.00
2018-01-06T00:08:49.698Z,4.70
2018-01-06T00:11:17.425Z,6.60
2018-01-06T00:13:45.944Z,9.60
2018-01-06T00:16:30.079Z,9.55
2018-01-06T00:29:43.470Z,7.50
2018-01-06T00:32:12.708Z,6.70
2018-01-06T00:34:40.955Z,6.00
2018-01-06T00:37:09.035Z,6.43
2018-01-06T00:39:36.991Z,4.67
2018-01-06T00:42:04.614Z,4.32
2018-01-06T00:44:32.453Z,4.50
2018-01-06T00:47:00.139Z,4.67
2018-01-06T00:49:27.726Z,4.80
2018-01-06T00:51:56.091Z,5.63
2018-01-06T00:54:23.675Z,5.50
2018-01-06T00:56:51.216Z,6.87
2018-01-06T00:59:19.355Z,7.50
2018-01-06T01:01:46.883Z,7.80
2018-01-06T01:04:26.479Z,9.10
2018-01-06T01:09:22.672Z,13.60
2018-01-06T01:11:50.275Z,12.60
2018-01-06T01:14:17.820Z,12.03
2018-01-06T01:16:45.357Z,10.67
2018-01-06T01:19:26.946Z,11.15
2018-01-06T01:30:20.315Z,9.98
2018-01-06T01:32:47.856Z,11.20
2018-01-06T01:35:17.771Z,11.37
2018-01-06T01:37:45.567Z,11.73
2018-01-06T01:40:15.412Z,13.27
2018-01-06T01:42:43.028Z,12.50
2018-01-06T01:45:10.633Z,12.90
2018-01-06T01:47:38.172Z,13.50
2018-01-06T01:50:06.481Z,13.17
2018-01-06T01:52:34.055Z,12.20
2018-01-06T01:55:01.583Z,14.10
2018-01-06T01:57:29.120Z,15.18
2018-01-06T01:59:56.987Z,14.20
2018-01-06T02:02:25.315Z,14.32
2018-01-06T02:04:52.852Z,13.23
2018-01-06T02:07:20.468Z,13.78
2018-01-06T02:09:47.999Z,14.43
2018-01-06T02:12:16.589Z,14.70
2018-01-06T02:14:44.192Z,13.40
2018-01-06T02:17:12.568Z,14.13
2018-01-06T02:19:40.100Z,14.43
2018-01-06T02:22:08.696Z,16.23
2018-01-06T02:24:36.237Z,15.07
2018-01-06T02:27:03.775Z,15.03
2018-01-06T02:29:31.361Z,13.50
2018-01-06T02:31:58.895Z,13.70
2018-01-06T02:34:26.440Z,12.53
2018-01-06T02:36:54.628Z,13.40
2018-01-06T02:39:22.227Z,13.07
2018-01-06T02:41:49.763Z,12.30
2018-01-06T02:44:17.555Z,11.20
2018-01-06T02:46:45.155Z,11.20
2018-01-06T02:49:14.469Z,12.27
2018-01-06T02:51:42.783Z,11.90
2018-01-06T02:54:10.366Z,13.30
2018-01-06T02:56:37.927Z,15.13
2018-01-06T02:59:06.271Z,13.68
2018-01-06T03:01:33.813Z,13.73
2018-01-06T03:04:01.355Z,13.83
2018-01-06T03:06:29.363Z,14.50
2018-01-06T03:08:56.948Z,15.20
2018-01-06T03:11:24.547Z,13.93
2018-01-06T03:13:52.115Z,14.40
2018-01-06T03:16:19.651Z,12.63
2018-01-06T03:18:47.201Z,12.70
2018-01-06T03:21:15.623Z,11.23
2018-01-06T03:23:43.159Z,11.23
2018-01-06T03:26:10.717Z,10.40
2018-01-06T03:28:39.395Z,10.40
2018-01-06T03:31:07.688Z,9.40
2018-01-06T03:33:35.232Z,9.60
2018-01-06T03:36:03.567Z,8.27
2018-01-06T03:38:31.384Z,7.87
2018-01-06T03:40:58.912Z,8.10
2018-01-06T03:43:26.480Z,7.35
2018-01-06T03:45:54.012Z,7.50
2018-01-06T03:48:21.549Z,7.47
2018-01-06T03:50:49.339Z,7.87
2018-01-06T03:53:16.907Z,7.30
2018-01-06T03:55:44.494Z,7.60
2018-01-06T03:58:12.065Z,7.33
2018-01-06T04:00:39.599Z,6.57
2018-01-06T04:03:07.183Z,7.70
2018-01-06T04:05:34.745Z,7.63
2018-01-06T04:08:02.279Z,7.40
2018-01-06T04:10:29.812Z,8.30
2018-01-06T04:12:58.071Z,8.20
2018-01-06T04:15:25.595Z,7.93
2018-01-06T04:17:53.883Z,7.93
2018-01-06T04:20:21.452Z,9.70
2018-01-06T04:22:48.983Z,10.40
2018-01-06T04:25:17.288Z,11.33
2018-01-06T04:27:44.855Z,14.93
2018-01-06T04:30:15.312Z,12.80
2018-01-06T04:32:42.937Z,13.57
2018-01-06T04:35:10.924Z,12.60
2018-01-06T04:37:38.530Z,11.10
2018-01-06T04:40:06.469Z,10.50
2018-01-06T04:42:34.040Z,11.57
2018-01-06T04:45:01.605Z,14.30
2018-01-06T04:47:29.136Z,14.30
2018-01-06T04:49:56.696Z,15.60
2018-01-06T04:52:24.238Z,15.77
2018-01-06T04:54:51.819Z,15.37
2018-01-06T04:57:20.067Z,14.80
2018-01-06T04:59:47.638Z,16.10
2018-01-06T05:02:17.292Z,15.95
2018-01-06T05:04:44.872Z,15.30
2018-01-06T05:07:12.407Z,16.57
2018-01-06T05:09:39.944Z,17.90
2018-01-06T05:12:07.556Z,17.23
2018-01-06T05:14:35.856Z,18.20
2018-01-06T05:17:03.441Z,17.10
2018-01-06T05:19:31.071Z,18.37
2018-01-06T05:21:58.622Z,18.85
2018-01-06T05:24:26.930Z,17.83
2018-01-06T05:26:54.491Z,17.60
2018-01-06T05:29:22.031Z,19.37
2018-01-06T05:31:49.571Z,19.73
2018-01-06T05:34:17.183Z,19.70
2018-01-06T05:36:44.711Z,21.40
2018-01-06T05:39:12.255Z,23.73
2018-01-06T05:41:42.056Z,23.50
2018-01-06T05:44:09.594Z,22.50
2018-01-06T05:46:37.376Z,24.00
2018-01-06T05:49:04.983Z,26.73
2018-01-06T05:51:32.527Z,26.05
2018-01-06T05:54:00.196Z,24.40
2018-01-06T05:56:27.783Z,24.97
2018-01-06T05:58:55.548Z,24.37
2018-01-06T06:01:23.109Z,25.27
2018-01-06T06:03:50.746Z,24.93
2018-01-06T06:06:18.287Z,26.13
2018-01-06T06:08:45.842Z,23.70
2018-01-06T06:11:26.475Z,24.98
2018-01-06T06:22:39.529Z,25.60
2018-01-06T06:25:07.187Z,26.13
2018-01-06T06:27:34.783Z,27.37
2018-01-06T06:30:02.368Z,26.23
2018-01-06T06:32:29.970Z,29.87
2018-01-06T06:34:57.623Z,29.30
2018-01-06T06:37:25.187Z,28.62
2018-01-06T06:39:52.800Z,28.70
2018-01-06T06:42:21.034Z,28.65
2018-01-06T06:44:49.139Z,27.10
2018-01-06T06:47:16.690Z,28.10
2018-01-06T06:49:44.280Z,28.60
2018-01-06T06:52:11.900Z,27.80
2018-01-06T06:54:39.464Z,28.83
2018-01-06T06:57:07.053Z,28.00
2018-01-06T06:59:34.808Z,26.83
2018-01-06T07:02:02.484Z,22.00
2018-01-06T07:04:30.051Z,21.62
2018-01-06T07:06:59.024Z,21.57
2018-01-06T07:09:26.619Z,19.90
2018-01-06T07:11:54.165Z,20.30
2018-01-06T07:20:27.820Z,22.67
2018-01-06T07:22:55.382Z,20.13
2018-01-06T07:25:23.024Z,20.00
2018-01-06T07:27:51.092Z,20.57
2018-01-06T07:30:18.756Z,20.92
2018-01-06T07:32:46.327Z,19.70
2018-01-06T07:35:15.587Z,18.80
2018-01-06T07:37:43.145Z,18.30
2018-01-06T07:40:10.835Z,19.50
2018-01-06T07:42:38.989Z,18.70
2018-01-06T07:45:06.625Z,18.85
2018-01-06T07:47:34.228Z,17.47
2018-01-06T07:50:02.269Z,18.83
2018-01-06T07:52:29.935Z,18.40
2018-01-06T07:54:57.479Z,17.95
2018-01-06T07:57:25.100Z,18.83
2018-01-06T07:59:52.718Z,16.77
2018-01-06T08:02:20.270Z,17.95
2018-01-06T08:04:47.936Z,17.97
2018-01-06T08:07:16.421Z,16.40
2018-01-06T08:09:43.959Z,17.33
2018-01-06T08:12:13.188Z,18.33
2018-01-06T08:14:41.440Z,16.70
2018-01-06T08:17:10.448Z,18.77
2018-01-06T08:19:38.033Z,17.63
2018-01-06T08:22:05.609Z,17.27
2018-01-06T08:24:33.148Z,16.52
2018-01-06T08:27:01.518Z,16.83
2018-01-06T08:29:30.008Z,17.30
2018-01-06T08:31:57.556Z,16.63
2018-01-06T08:34:25.212Z,17.40
2018-01-06T08:36:52.989Z,18.50
2018-01-06T08:39:20.687Z,17.86
2018-01-06T08:41:48.293Z,16.03
2018-01-06T08:44:17.840Z,16.60
2018-01-06T08:46:45.395Z,15.82
2018-01-06T08:49:24.428Z,16.33
2018-01-06T09:01:32.711Z,16.12
2018-01-06T09:04:01.082Z,20.17
2018-01-06T09:09:30.914Z,20.90
2018-01-06T09:11:58.576Z,14.18
2018-01-06T09:14:26.115Z,13.73
2018-01-06T09:16:54.376Z,15.73
2018-01-06T09:19:22.148Z,11.37
2018-01-06T09:21:49.759Z,11.60
2018-01-06T09:24:17.442Z,12.87
2018-01-06T09:26:44.993Z,12.77
2018-01-06T09:29:12.588Z,13.27
2018-01-06T09:31:40.171Z,12.90
2018-01-06T09:34:07.796Z,12.10
2018-01-06T09:36:35.406Z,13.30
2018-01-06T09:39:03.235Z,11.13
2018-01-06T09:41:30.808Z,10.93
2018-01-06T09:43:58.567Z,10.00
2018-01-06T09:46:26.763Z,10.13
2018-01-06T09:48:54.308Z,9.40
2018-01-06T09:51:21.844Z,8.07
2018-01-06T09:53:50.175Z,9.20
2018-01-06T09:56:17.717Z,9.90
2018-01-06T09:58:45.264Z,9.00
2018-01-06T10:01:14.270Z,7.00
2018-01-06T10:03:41.863Z,7.30
2018-01-06T10:06:09.392Z,7.23
2018-01-06T10:08:36.961Z,6.50
2018-01-06T10:11:04.568Z,9.40
2018-01-06T10:13:32.144Z,9.40
2018-01-06T10:15:59.786Z,6.77
2018-01-06T10:18:27.375Z,8.80
2018-01-06T10:20:54.999Z,11.87
2018-01-06T10:23:22.957Z,7.10
2018-01-06T10:25:50.526Z,5.75
2018-01-06T10:28:18.111Z,5.70
2018-01-06T10:30:45.710Z,6.90
2018-01-06T10:33:15.407Z,6.45
2018-01-06T10:35:42.969Z,6.20
2018-01-06T10:38:10.553Z,5.53
2018-01-06T10:40:38.111Z,6.50
2018-01-06T10:43:05.740Z,6.07
2018-01-06T10:45:34.108Z,6.75
2018-01-06T10:48:03.164Z,7.40
2018-01-06T10:50:30.700Z,6.30
2018-01-06T10:52:58.259Z,5.97
2018-01-06T10:55:25.817Z,6.00
2018-01-06T10:57:53.505Z,5.40
2018-01-06T11:00:21.232Z,5.67
2018-01-06T11:02:48.771Z,5.73
2018-01-06T11:05:16.508Z,5.72
2018-01-06T11:07:44.124Z,5.93
2018-01-06T11:10:11.659Z,5.23
2018-01-06T11:12:39.189Z,5.17
2018-01-06T11:15:06.763Z,5.30
2018-01-06T11:17:34.300Z,5.67
2018-01-06T11:20:01.843Z,6.40
2018-01-06T11:22:29.551Z,5.33
2018-01-06T11:24:57.162Z,5.07
2018-01-06T11:27:26.465Z,4.80
2018-01-06T11:29:54.237Z,5.33
2018-01-06T11:32:22.353Z,5.30
2018-01-06T11:34:49.946Z,5.23
2018-01-06T11:37:17.589Z,5.03
2018-01-06T11:39:45.132Z,5.07
2018-01-06T11:42:12.716Z,4.33
2018-01-06T11:44:41.212Z,5.80
2018-01-06T11:47:08.841Z,5.40
2018-01-06T11:49:37.960Z,5.50
2018-01-06T11:52:05.872Z,4.55
2018-01-06T11:54:33.468Z,4.30
2018-01-06T11:57:01.017Z,4.07
2018-01-06T11:59:28.591Z,4.50
2018-01-06T12:01:56.912Z,4.23
2018-01-06T12:04:24.455Z,5.43
2018-01-06T12:06:52.016Z,5.20
2018-01-06T12:09:19.560Z,5.25
2018-01-06T12:11:47.100Z,4.50
2018-01-06T12:14:17.319Z,4.70
2018-01-06T12:16:45.640Z,4.10
2018-01-06T12:19:14.659Z,4.28
2018-01-06T12:21:42.793Z,5.07
2018-01-06T12:24:10.408Z,3.53
2018-01-06T12:26:37.928Z,4.30
2018-01-06T12:29:05.514Z,3.53
2018-01-06T12:31:33.081Z,3.80
2018-01-06T12:34:00.624Z,4.20
2018-01-06T12:36:28.484Z,3.72
2018-01-06T12:38:56.169Z,4.20
2018-01-06T12:41:23.713Z,3.10
2018-01-06T12:43:51.332Z,3.73
2018-01-06T12:46:18.872Z,3.50
2018-01-06T12:48:47.180Z,3.33
2018-01-06T12:51:17.167Z,3.67
2018-01-06T12:53:45.495Z,3.90
2018-01-06T12:56:15.431Z,3.75
2018-01-06T12:58:44.184Z,3.67
2018-01-06T13:01:11.781Z,3.60
2018-01-06T13:03:40.136Z,4.20
2018-01-06T13:06:07.825Z,3.90
2018-01-06T13:08:36.630Z,4.20
2018-01-06T13:11:04.227Z,4.27
2018-01-06T13:13:31.828Z,4.35
2018-01-06T13:15:59.418Z,4.17
2018-01-06T13:18:27.025Z,4.10
2018-01-06T13:20:54.664Z,3.80
2018-01-06T13:23:22.251Z,3.93
2018-01-06T13:25:49.838Z,3.95
2018-01-06T13:28:19.157Z,4.45
2018-01-06T13:30:46.824Z,5.10
2018-01-06T13:33:31.326Z,4.55
2018-01-06T13:42:34.261Z,5.50
2018-01-06T13:45:01.857Z,5.50
2018-01-06T13:47:29.462Z,6.77
2018-01-06T13:49:57.044Z,6.10
2018-01-06T13:52:26.589Z,5.60
2018-01-06T13:54:55.683Z,5.67
2018-01-06T13:57:24.116Z,5.93
2018-01-06T13:59:54.944Z,5.60
2018-01-06T14:02:22.491Z,6.07
2018-01-06T14:04:50.724Z,5.47
2018-01-06T14:07:18.329Z,5.90
2018-01-06T14:09:46.631Z,5.87
2018-01-06T14:12:27.113Z,6.20
2018-01-06T14:17:40.394Z,5.87
2018-01-06T14:20:08.807Z,5.83
2018-01-06T14:22:37.284Z,5.77
2018-01-06T14:25:05.143Z,5.53
2018-01-06T14:27:32.700Z,5.55
2018-01-06T14:30:00.301Z,6.07
2018-01-06T14:32:27.991Z,6.30
2018-01-06T14:34:55.547Z,6.60
2018-01-06T14:37:23.346Z,8.03
2018-01-06T14:39:51.765Z,8.27
2018-01-06T14:42:20.903Z,8.60
2018-01-06T14:44:48.446Z,8.70
2018-01-06T14:47:16.502Z,9.02
2018-01-06T14:49:45.208Z,7.90
2018-01-06T14:52:13.797Z,8.40
2018-01-06T14:54:42.029Z,8.10
2018-01-06T14:57:09.640Z,8.48
2018-01-06T14:59:38.008Z,9.07
2018-01-06T15:02:05.695Z,9.20
2018-01-06T15:04:33.350Z,8.88
2018-01-06T15:07:01.804Z,8.97
2018-01-06T15:09:29.559Z,9.47
2018-01-06T15:11:58.411Z,10.10
2018-01-06T15:14:26.054Z,9.97
2018-01-06T15:16:53.823Z,10.70
2018-01-06T15:19:22.254Z,9.55
2018-01-06T15:21:49.937Z,11.90
2018-01-06T15:24:18.071Z,9.98
2018-01-06T15:26:45.812Z,11.10
2018-01-06T15:29:19.641Z,10.88
2018-01-06T15:38:53.256Z,12.70
2018-01-06T15:41:23.216Z,10.90
2018-01-06T15:43:50.848Z,10.85
2018-01-06T15:46:18.742Z,9.90
2018-01-06T15:48:46.686Z,11.73
2018-01-06T15:51:30.473Z,11.95
2018-01-06T16:00:04.460Z,11.20
2018-01-06T16:02:32.014Z,11.53
2018-01-06T16:05:02.011Z,12.03
2018-01-06T16:07:29.879Z,11.95
2018-01-06T16:09:57.631Z,11.03
2018-01-06T16:15:31.711Z,15.73
2018-01-06T16:23:50.911Z,17.20
2018-01-06T16:26:18.659Z,15.82
2018-01-06T16:28:51.576Z,17.03
2018-01-06T16:31:41.232Z,17.00
2018-01-06T16:43:48.006Z,23.00
2018-01-06T16:46:16.636Z,24.37
2018-01-06T16:48:44.842Z,26.17
2018-01-06T16:51:12.628Z,32.37
2018-01-06T16:53:40.441Z,31.57
2018-01-06T16:56:07.989Z,28.70
2018-01-06T16:58:35.825Z,31.52
2018-01-06T17:01:04.182Z,35.97
2018-01-06T17:03:31.784Z,30.40
2018-01-06T17:06:00.306Z,33.37
2018-01-06T17:08:27.914Z,32.53
2018-01-06T17:10:55.554Z,32.37
2018-01-06T17:13:23.204Z,32.90
2018-01-06T17:15:51.688Z,31.20
2018-01-06T17:18:20.005Z,30.43
2018-01-06T17:20:47.576Z,25.40
2018-01-06T17:23:17.274Z,29.12
2018-01-06T17:25:44.819Z,32.63
2018-01-06T17:28:13.138Z,26.90
2018-01-06T17:30:40.684Z,25.50
2018-01-06T17:33:08.344Z,26.67
2018-01-06T17:35:36.140Z,25.60
2018-01-06T17:38:03.875Z,25.17
2018-01-06T17:40:31.462Z,24.30
2018-01-06T17:42:59.092Z,23.90
2018-01-06T17:45:26.721Z,25.40
2018-01-06T17:47:54.330Z,27.87
2018-01-06T17:50:22.044Z,28.40
2018-01-06T17:52:50.415Z,28.92
2018-01-06T17:55:20.010Z,25.73
2018-01-06T17:57:48.470Z,25.70
2018-01-06T18:00:16.760Z,26.58
2018-01-06T18:02:44.912Z,25.50
2018-01-06T18:05:13.046Z,24.03
2018-01-06T18:07:40.719Z,22.97
2018-01-06T18:10:08.287Z,29.07
2018-01-06T18:12:35.963Z,58.00
2018-01-06T18:15:03.597Z,42.03
2018-01-06T18:17:31.216Z,40.80
2018-01-06T18:19:58.843Z,38.67
2018-01-06T18:22:26.640Z,41.33
2018-01-06T18:24:54.309Z,40.17
2018-01-06T18:27:22.018Z,35.40
2018-01-06T18:29:50.742Z,36.93
2018-01-06T18:32:20.101Z,40.33
2018-01-06T18:34:48.314Z,37.07
2018-01-06T18:37:16.861Z,36.70
2018-01-06T18:39:44.507Z,37.53
2018-01-06T18:42:12.234Z,39.10
2018-01-06T18:44:39.987Z,39.30
2018-01-06T18:47:11.429Z,38.20
2018-01-06T18:49:39.204Z,38.70
2018-01-06T18:52:08.186Z,38.70
2018-01-06T18:54:36.863Z,41.80
2018-01-06T18:57:06.189Z,37.70
2018-01-06T18:59:34.820Z,36.37
2018-01-06T19:02:02.541Z,35.90
2018-01-06T19:04:30.821Z,39.40
2018-01-06T19:06:58.563Z,39.13
2018-01-06T19:09:26.345Z,38.05
2018-01-06T19:11:54.241Z,43.47
2018-01-06T19:14:22.557Z,47.83
2018-01-06T19:16:51.253Z,47.10
2018-01-06T19:19:20.586Z,48.63
2018-01-06T19:21:48.331Z,47.60
2018-01-06T19:24:16.951Z,44.78
2018-01-06T19:26:46.581Z,50.05
2018-01-06T19:29:16.808Z,48.67
2018-01-06T19:31:47.056Z,45.47
2018-01-06T19:34:25.648Z,47.30
2018-01-06T19:39:51.076Z,41.73
2018-01-06T19:42:18.997Z,42.92
2018-01-06T19:44:46.941Z,40.05
2018-01-06T19:47:20.667Z,41.10
2018-01-06T19:49:48.434Z,40.80
2018-01-06T19:52:16.631Z,45.40
2018-01-06T19:54:44.319Z,52.10
2018-01-06T19:57:12.122Z,54.37
2018-01-06T19:59:39.870Z,57.80
2018-01-06T20:02:08.211Z,71.60
2018-01-06T20:04:37.356Z,54.50
2018-01-06T20:07:06.009Z,58.23
2018-01-06T20:09:33.684Z,54.03
2018-01-06T20:12:01.316Z,58.37
2018-01-06T20:14:28.976Z,42.73
2018-01-06T20:16:57.616Z,45.00
2018-01-06T20:19:25.217Z,51.27
2018-01-06T20:21:52.916Z,48.07
2018-01-06T20:24:20.818Z,51.30
2018-01-06T20:26:49.205Z,58.92
2018-01-06T20:29:17.035Z,71.30
2018-01-06T20:31:44.889Z,63.23
2018-01-06T20:34:12.656Z,49.97
2018-01-06T20:36:40.787Z,54.47
2018-01-06T20:39:08.577Z,49.13
2018-01-06T20:41:36.199Z,51.03
2018-01-06T20:44:03.825Z,52.73
2018-01-06T20:46:31.524Z,54.30
2018-01-06T20:48:59.251Z,52.97
2018-01-06T20:51:26.942Z,43.00
2018-01-06T20:53:54.674Z,48.58
2018-01-06T20:56:22.321Z,46.95
2018-01-06T20:58:50.041Z,50.07
2018-01-06T21:01:17.744Z,56.20
2018-01-06T21:03:46.188Z,64.90
2018-01-06T21:06:17.408Z,57.22
2018-01-06T21:08:45.532Z,61.13
2018-01-06T21:11:14.742Z,63.65
2018-01-06T21:13:43.371Z,57.60
2018-01-06T21:16:11.992Z,53.50
2018-01-06T21:18:39.790Z,53.60
2018-01-06T21:21:07.511Z,50.53
2018-01-06T21:23:35.281Z,43.40
2018-01-06T21:26:02.896Z,44.90
2018-01-06T21:28:30.949Z,46.83
2018-01-06T21:30:59.430Z,46.13
2018-01-06T21:33:28.065Z,46.72
2018-01-06T21:35:55.856Z,46.73
2018-01-06T21:38:24.425Z,52.37
2018-01-06T21:40:52.337Z,49.23
2018-01-06T21:43:20.018Z,46.00
2018-01-06T21:45:47.644Z,51.55
2018-01-06T21:48:16.855Z,49.03
2018-01-06T21:50:44.485Z,62.50
2018-01-06T21:53:12.419Z,44.77
2018-01-06T21:55:40.027Z,44.27
2018-01-06T21:58:07.681Z,44.40
2018-01-06T22:00:35.350Z,43.03
2018-01-06T22:03:02.972Z,40.30
2018-01-06T22:05:30.635Z,45.80
2018-01-06T22:07:59.063Z,43.23
2018-01-06T22:10:27.703Z,53.25
2018-01-06T22:12:55.295Z,50.20
2018-01-06T22:15:23.326Z,40.57
2018-01-06T22:17:50.919Z,39.57
2018-01-06T22:20:18.611Z,39.67
2018-01-06T22:22:46.261Z,43.10
2018-01-06T22:25:15.721Z,37.58
2018-01-06T22:27:44.506Z,41.10
2018-01-06T22:30:12.214Z,40.17
2018-01-06T22:32:39.920Z,40.47
2018-01-06T22:35:07.520Z,39.03
2018-01-06T22:37:35.570Z,38.63
2018-01-06T22:40:03.269Z,40.40
2018-01-06T22:42:30.878Z,40.00
2018-01-06T22:44:58.502Z,50.47
2018-01-06T22:47:26.165Z,42.73
2018-01-06T22:49:53.771Z,38.13
2018-01-06T22:52:21.683Z,36.30
2018-01-06T22:54:50.541Z,36.53
2018-01-06T22:57:18.526Z,45.30
2018-01-06T22:59:46.288Z,124.20
2018-01-06T23:02:27.711Z,46.00
2018-01-06T23:07:33.903Z,44.77
2018-01-06T23:10:02.045Z,44.50
2018-01-06T23:12:29.824Z,49.20
2018-01-06T23:14:58.449Z,47.10
2018-01-06T23:17:26.084Z,74.60
2018-01-06T23:19:54.439Z,63.30
2018-01-06T23:22:22.064Z,51.60
2018-01-06T23:24:49.675Z,56.77
2018-01-06T23:27:17.324Z,59.40
2018-01-06T23:29:45.731Z,45.50
2018-01-06T23:32:15.511Z,45.67
2018-01-06T23:34:43.159Z,34.33
2018-01-06T23:37:11.230Z,33.63
2018-01-06T23:39:38.872Z,34.30
2018-01-06T23:42:06.456Z,33.77
2018-01-06T23:44:34.083Z,34.47
2018-01-06T23:47:02.703Z,36.40
2018-01-06T23:49:30.278Z,33.77
2018-01-06T23:51:58.682Z,26.90
2018-01-06T23:54:27.026Z,26.73
2018-01-06T23:56:54.606Z,32.85
2018-01-06T23:59:22.994Z,23.17
